This is the latest recevied weather packets stored in our database for station/object N8AMF. If no packets are shown the sender has not sent any weather packets the latest 10 day(s).
| Time | Temp. | Humidity | Pressure | Rain* | Wind** | Luminosity | Snow |
|---|---|---|---|---|---|---|---|
| 1777671527 | 6.67° C | 78% | 1013.9 hPa | 0 mm | - | 132 W/m² | - |
| 1777671224 | 7.22° C | 79% | 1013.7 hPa | 0 mm | - | 163 W/m² | - |
| 1777670920 | 7.22° C | 79% | 1013.7 hPa | 0 mm | - | 185 W/m² | - |
| 1777670617 | 7.22° C | 79% | 1013.7 hPa | 0 mm | - | 141 W/m² | - |
| 1777670315 | 7.22° C | 79% | 1013.7 hPa | 0 mm | - | 157 W/m² | - |
| 1777670012 | 6.67° C | 78% | 1013.6 hPa | 0 mm | - | 128 W/m² | - |
| 1777669709 | 7.22° C | 78% | 1013.3 hPa | 0 mm | - | 187 W/m² | - |
| 1777669406 | 7.78° C | 78% | 1013.3 hPa | 0 mm | - | 401 W/m² | - |
| 1777669102 | 7.78° C | 78% | 1013.3 hPa | 0 mm | - | 423 W/m² | - |
| 1777668799 | 7.22° C | 79% | 1013.2 hPa | 0 mm | - | 429 W/m² | - |
| 1777668496 | 7.22° C | 80% | 1013.3 hPa | 0 mm | - | 265 W/m² | - |
| 1777668192 | 6.67° C | 81% | 1013 hPa | 0 mm | - | 237 W/m² | - |
| 1777658795 | 5.56° C | 95% | 1012.7 hPa | 1.27 mm | - | 152 W/m² | - |
| 1777658491 | 5.56° C | 95% | 1012.5 hPa | 1.27 mm | - | 109 W/m² | - |
| 1777658188 | 5.56° C | 95% | 1012.3 hPa | 1.27 mm | - | 79 W/m² | - |
| 1777657885 | 5.56° C | 95% | 1012.4 hPa | 0.51 mm | - | 171 W/m² | - |
| 1777657582 | 5.56° C | 95% | 1012.4 hPa | 0.51 mm | - | 181 W/m² | - |
| 1777657280 | 5.56° C | 95% | 1012.3 hPa | 0.51 mm | - | 154 W/m² | - |
| 1777656977 | 5.56° C | 95% | 1012.2 hPa | 0.51 mm | - | 145 W/m² | - |
| 1777656674 | 5.56° C | 95% | 1012.2 hPa | 0.51 mm | - | 161 W/m² | - |
| 1777656369 | 5.56° C | 95% | 1012.3 hPa | 0.51 mm | - | 194 W/m² | - |
| 1777656064 | 5° C | 95% | 1012.2 hPa | 0.51 mm | - | 171 W/m² | - |
| 1777655761 | 5° C | 95% | 1012.3 hPa | 0.51 mm | - | 126 W/m² | - |
| 1777655458 | 5° C | 95% | 1012.2 hPa | 0 mm | - | 129 W/m² | - |
| 1777655154 | 5° C | 95% | 1012.5 hPa | 0.51 mm | - | 58 W/m² | - |
* Rain latest hour (hover to see other rain measurements)
** Current wind speed in m/s (hover to see current wind gust speed)